Time,TemperatureF,DewpointF,PressureIn,WindDirection,WindDirectionDegrees,WindSpeedMPH,WindSpeedGustMPH,Humidity,HourlyPrecipIn,Conditions,Clouds,dailyrainin,SolarRadiationWatts/m^2,SoftwareType,DateUTC
2013-05-31 00:00:00,64.0,60.1,29.66,ESE,113,0.0,0.0,87,0.00,RA,,0.00,0.0,WeatherDisplay:10.37,2013-05-31 05:00:00,
2013-05-31 00:06:00,64.0,59.7,29.66,ESE,113,0.0,0.0,86,0.00,BKN,,0.00,0.0,WeatherDisplay:10.37,2013-05-31 05:06:00,
2013-05-31 00:11:00,64.0,59.1,29.66,NNW,329,0.0,0.0,84,0.00,BKN,,0.00,0.0,WeatherDisplay:10.37,2013-05-31 05:11:00,
2013-05-31 00:16:00,64.2,58.2,29.64,NNW,329,0.0,0.0,81,0.00,BKN,,0.00,0.0,WeatherDisplay:10.37,2013-05-31 05:16:00,
2013-05-31 00:21:00,64.5,58.2,29.64,NNW,329,0.0,0.0,80,0.00,BKN,,0.00,0.0,WeatherDisplay:10.37,2013-05-31 05:21:00,
2013-05-31 00:27:00,64.6,57.9,29.64,NNW,329,0.0,0.0,79,0.00,BKN,,0.00,0.0,WeatherDisplay:10.37,2013-05-31 05:27:00,
2013-05-31 00:32:00,64.6,57.9,29.64,NNW,329,0.0,0.0,79,0.00,BKN,BKN,0.00,0.0,WeatherDisplay:10.37,2013-05-31 05:32:00,
2013-05-31 00:37:00,64.6,58.3,29.65,NW,311,0.0,0.0,80,0.00,BKN,,0.00,0.0,WeatherDisplay:10.37,2013-05-31 05:37:00,
2013-05-31 00:42:00,64.3,57.6,29.65,South,189,0.0,0.0,79,0.00,BKN,,0.00,0.0,WeatherDisplay:10.37,2013-05-31 05:42:00,
2013-05-31 00:48:00,64.1,57.8,29.65,South,176,0.6,2.3,80,0.00,BKN,,0.00,0.0,WeatherDisplay:10.37,2013-05-31 05:48:00,
2013-05-31 00:53:00,63.9,57.3,29.66,South,182,0.6,3.5,79,0.00,BKN,,0.00,0.0,WeatherDisplay:10.37,2013-05-31 05:53:00,
2013-05-31 00:58:00,63.8,57.5,29.65,South,182,0.0,0.0,80,0.00,BKN,,0.00,0.0,WeatherDisplay:10.37,2013-05-31 05:58:00,
2013-05-31 01:03:00,63.6,57.3,29.64,South,176,0.0,1.0,80,0.00,FEW,,0.00,0.0,WeatherDisplay:10.37,2013-05-31 06:03:00,
2013-05-31 01:09:00,63.4,57.1,29.65,South,176,0.0,0.0,80,0.00,FEW,,0.00,0.0,WeatherDisplay:10.37,2013-05-31 06:09:00,
2013-05-31 01:14:00,63.1,57.2,29.65,South,176,0.0,0.0,81,0.00,FEW,,0.00,0.0,WeatherDisplay:10.37,2013-05-31 06:14:00,
2013-05-31 01:19:00,62.8,56.9,29.66,South,176,0.0,0.0,81,0.00,FEW,,0.00,0.0,WeatherDisplay:10.37,2013-05-31 06:19:00,
2013-05-31 01:24:00,62.3,56.7,29.66,South,175,0.0,0.0,82,0.00,FEW,,0.00,0.0,WeatherDisplay:10.37,2013-05-31 06:24:00,
2013-05-31 01:30:00,62.0,56.8,29.67,South,175,0.0,0.0,83,0.00,FEW,,0.00,0.0,WeatherDisplay:10.37,2013-05-31 06:30:00,
2013-05-31 01:35:00,61.7,56.5,29.67,South,175,0.0,0.0,83,0.00,FEW,,0.00,0.0,WeatherDisplay:10.37,2013-05-31 06:35:00,
2013-05-31 01:40:00,61.3,56.4,29.67,South,175,0.0,0.0,84,0.00,FEW,,0.00,0.0,WeatherDisplay:10.37,2013-05-31 06:40:00,
2013-05-31 01:45:00,61.1,56.6,29.66,South,175,0.0,0.0,85,0.00,FEW,,0.00,0.0,WeatherDisplay:10.37,2013-05-31 06:45:00,
2013-05-31 01:51:00,61.0,56.8,29.66,South,175,0.0,0.0,86,0.00,FEW,,0.00,0.0,WeatherDisplay:10.37,2013-05-31 06:51:00,
2013-05-31 01:56:00,60.9,57.0,29.66,South,175,0.0,0.0,87,0.00,FEW,,0.00,0.0,WeatherDisplay:10.37,2013-05-31 06:56:00,
2013-05-31 02:01:00,60.8,57.2,29.66,South,175,0.0,0.0,88,0.00,FEW,,0.00,0.0,WeatherDisplay:10.37,2013-05-31 07:01:00,
2013-05-31 02:06:00,60.8,57.5,29.67,South,175,0.0,0.0,89,0.00,FEW,,0.00,0.0,WeatherDisplay:10.37,2013-05-31 07:06:00,
2013-05-31 02:12:00,60.9,57.9,29.66,South,178,0.0,1.2,90,0.00,FEW,,0.00,0.0,WeatherDisplay:10.37,2013-05-31 07:12:00,
2013-05-31 02:17:00,61.0,58.4,29.67,South,177,0.0,0.0,91,0.00,FEW,FEW,0.00,0.0,WeatherDisplay:10.37,2013-05-31 07:17:00,
2013-05-31 02:22:00,61.1,58.8,29.67,South,180,0.0,0.0,92,0.00,FEW,,0.00,0.0,WeatherDisplay:10.37,2013-05-31 07:22:00,
2013-05-31 02:27:00,61.3,59.3,29.66,SSE,161,0.1,0.0,93,0.00,FEW,,0.00,0.0,WeatherDisplay:10.37,2013-05-31 07:27:00,
2013-05-31 02:32:00,61.5,59.8,29.67,SSE,161,0.0,2.3,94,0.00,FEW,,0.00,0.0,WeatherDisplay:10.37,2013-05-31 07:32:00,
2013-05-31 02:38:00,61.7,60.0,29.67,SSE,156,0.0,0.0,94,0.00,FEW,,0.00,0.0,WeatherDisplay:10.37,2013-05-31 07:38:00,
2013-05-31 02:43:00,61.8,60.1,29.67,ESE,121,0.5,2.3,94,0.00,FEW,,0.00,0.0,WeatherDisplay:10.37,2013-05-31 07:43:00,
2013-05-31 02:48:00,62.2,60.8,29.67,South,170,0.0,1.2,95,0.00,FEW,,0.00,0.0,WeatherDisplay:10.37,2013-05-31 07:48:00,
2013-05-31 02:53:00,62.5,61.0,29.67,SE,130,0.0,0.0,95,0.00,FEW,,0.00,0.0,WeatherDisplay:10.37,2013-05-31 07:53:00,
2013-05-31 02:59:00,62.5,61.0,29.67,West,259,0.2,1.2,95,0.00,FEW,,0.00,0.0,WeatherDisplay:10.37,2013-05-31 07:59:00,
2013-05-31 03:04:00,62.6,61.1,29.67,SSW,198,0.2,2.3,95,0.00,SCT,,0.00,0.0,WeatherDisplay:10.37,2013-05-31 08:04:00,
2013-05-31 03:09:00,62.8,61.3,29.68,SE,145,0.0,1.2,95,0.00,SCT,,0.00,0.0,WeatherDisplay:10.37,2013-05-31 08:09:00,
2013-05-31 03:14:00,63.1,61.9,29.68,South,175,0.0,4.6,96,0.00,SCT,,0.00,0.0,WeatherDisplay:10.37,2013-05-31 08:14:00,
2013-05-31 03:20:00,63.3,62.1,29.68,ESE,120,0.9,7.0,96,0.00,SCT,,0.00,0.0,WeatherDisplay:10.37,2013-05-31 08:20:00,
2013-05-31 03:25:00,63.5,62.3,29.67,SE,140,2.2,6.9,96,0.00,SCT,,0.00,0.0,WeatherDisplay:10.37,2013-05-31 08:25:00,
2013-05-31 03:30:00,63.6,62.4,29.67,South,186,2.3,9.0,96,0.00,SCT,,0.00,0.0,WeatherDisplay:10.37,2013-05-31 08:30:00,
2013-05-31 03:35:00,63.7,62.5,29.67,SW,224,0.6,1.2,96,0.00,SCT,,0.00,0.0,WeatherDisplay:10.37,2013-05-31 08:35:00,
2013-05-31 03:41:00,63.8,62.6,29.67,South,171,0.1,2.0,96,0.00,SCT,,0.00,0.0,WeatherDisplay:10.37,2013-05-31 08:41:00,
2013-05-31 03:46:00,63.8,62.6,29.66,South,190,3.3,11.5,96,0.00,SCT,,0.00,0.0,WeatherDisplay:10.37,2013-05-31 08:46:00,
2013-05-31 03:51:00,63.8,62.6,29.67,SSW,213,0.3,2.3,96,0.00,SCT,,0.00,0.0,WeatherDisplay:10.37,2013-05-31 08:51:00,
2013-05-31 03:56:00,63.9,62.4,29.66,SE,144,0.9,3.0,95,0.00,SCT,,0.00,0.0,WeatherDisplay:10.37,2013-05-31 08:56:00,
2013-05-31 04:02:00,64.0,62.5,29.67,ESE,109,0.5,6.9,95,0.00,OVC,,0.00,0.0,WeatherDisplay:10.37,2013-05-31 09:02:00,
2013-05-31 04:07:00,64.1,62.6,29.67,SSE,151,0.0,7.0,95,0.00,OVC,OVC,0.00,0.0,WeatherDisplay:10.37,2013-05-31 09:07:00,
2013-05-31 04:12:00,64.1,62.6,29.67,SSE,148,1.0,4.0,95,0.00,OVC,OVC,0.00,0.0,WeatherDisplay:10.37,2013-05-31 09:12:00,
2013-05-31 04:17:00,64.0,62.5,29.66,SE,146,0.0,4.0,95,0.00,OVC,OVC,0.00,0.0,WeatherDisplay:10.37,2013-05-31 09:17:00,
2013-05-31 04:22:00,63.9,62.4,29.66,SSE,157,0.0,0.0,95,0.00,OVC,,0.00,0.0,WeatherDisplay:10.37,2013-05-31 09:22:00,
2013-05-31 04:27:00,63.8,62.3,29.65,SSE,155,0.0,0.0,95,0.00,OVC,,0.00,0.0,WeatherDisplay:10.37,2013-05-31 09:27:00,
2013-05-31 04:32:00,63.6,62.1,29.65,SSE,155,0.8,2.3,95,0.00,OVC,,0.00,0.0,WeatherDisplay:10.37,2013-05-31 09:32:00,
2013-05-31 04:38:00,63.6,62.1,29.65,SSE,155,0.0,0.0,95,0.00,OVC,,0.00,0.0,WeatherDisplay:10.37,2013-05-31 09:38:00,
2013-05-31 04:43:00,63.4,61.9,29.65,SSE,155,0.0,0.0,95,0.00,OVC,,0.00,0.0,WeatherDisplay:10.37,2013-05-31 09:43:00,
2013-05-31 04:48:00,63.2,61.7,29.65,SSE,155,0.0,0.0,95,0.00,OVC,,0.00,0.0,WeatherDisplay:10.37,2013-05-31 09:48:00,
2013-05-31 04:53:00,63.1,61.6,29.65,SSE,155,0.0,0.0,95,0.00,OVC,,0.00,0.0,WeatherDisplay:10.37,2013-05-31 09:53:00,
2013-05-31 04:59:00,63.0,61.5,29.64,SSE,155,0.0,0.0,95,0.00,OVC,,0.00,0.0,WeatherDisplay:10.37,2013-05-31 09:59:00,
2013-05-31 05:04:00,62.9,61.7,29.65,SE,143,0.0,0.0,96,0.00,FEW,,0.00,0.0,WeatherDisplay:10.37,2013-05-31 10:04:00,
2013-05-31 05:09:00,62.8,61.3,29.64,SE,143,0.0,0.0,95,0.00,FEW,,0.00,0.0,WeatherDisplay:10.37,2013-05-31 10:09:00,
2013-05-31 05:14:00,62.6,61.1,29.64,SE,143,0.3,2.0,95,0.00,FEW,,0.00,0.0,WeatherDisplay:10.37,2013-05-31 10:14:00,
2013-05-31 05:20:00,62.6,61.4,29.63,South,169,0.0,0.0,96,0.00,FEW,,0.00,0.0,WeatherDisplay:10.37,2013-05-31 10:20:00,
2013-05-31 05:25:00,62.6,61.4,29.63,South,173,0.2,1.2,96,0.00,FEW,,0.00,0.0,WeatherDisplay:10.37,2013-05-31 10:25:00,
2013-05-31 05:30:00,62.5,61.3,29.63,South,173,0.0,0.0,96,0.00,FEW,,0.00,0.0,WeatherDisplay:10.37,2013-05-31 10:30:00,
2013-05-31 05:35:00,62.5,61.3,29.64,ESE,107,0.0,0.0,96,0.00,FEW,,0.00,0.0,WeatherDisplay:10.37,2013-05-31 10:35:00,
2013-05-31 05:41:00,62.5,61.3,29.64,SSW,194,0.1,2.0,96,0.00,FEW,,0.00,0.0,WeatherDisplay:10.37,2013-05-31 10:41:00,
2013-05-31 05:46:00,62.5,61.3,29.64,South,171,0.0,0.0,96,0.00,FEW,,0.00,0.0,WeatherDisplay:10.37,2013-05-31 10:46:00,
2013-05-31 05:51:00,62.4,61.2,29.65,South,171,0.0,0.0,96,0.00,FEW,,0.00,12.6,WeatherDisplay:10.37,2013-05-31 10:51:00,
2013-05-31 05:56:00,62.3,61.1,29.65,SSE,157,0.6,6.0,96,0.00,FEW,,0.00,16.8,WeatherDisplay:10.37,2013-05-31 10:56:00,
2013-05-31 06:02:00,62.3,61.1,29.65,NNE,21,0.0,1.2,96,0.00,SCT,,0.00,19.6,WeatherDisplay:10.37,2013-05-31 11:02:00,
2013-05-31 06:07:00,62.3,61.1,29.65,NNE,21,0.0,1.0,96,0.00,SCT,SCT,0.00,29.4,WeatherDisplay:10.37,2013-05-31 11:07:00,
2013-05-31 06:12:00,62.2,61.1,29.66,ENE,76,0.0,2.0,96,0.00,SCT,SCT,0.00,35.0,WeatherDisplay:10.37,2013-05-31 11:12:00,
2013-05-31 06:17:00,62.2,61.0,29.66,SSE,154,0.4,6.0,96,0.00,SCT,,0.00,26.6,WeatherDisplay:10.37,2013-05-31 11:17:00,
2013-05-31 06:22:00,62.3,61.1,29.65,SSE,158,1.3,3.5,96,0.00,SCT,,0.00,32.2,WeatherDisplay:10.37,2013-05-31 11:22:00,
2013-05-31 06:27:00,62.4,61.2,29.65,SE,146,0.0,0.0,96,0.00,SCT,,0.00,35.0,WeatherDisplay:10.37,2013-05-31 11:27:00,
2013-05-31 06:33:00,62.4,61.2,29.65,SSE,153,2.2,6.9,96,0.00,SCT,,0.00,46.2,WeatherDisplay:10.37,2013-05-31 11:33:00,
2013-05-31 06:38:00,62.4,61.2,29.64,SE,142,0.0,0.0,96,0.00,SCT,,0.00,46.2,WeatherDisplay:10.37,2013-05-31 11:38:00,
2013-05-31 06:43:00,62.4,61.2,29.64,SSE,150,0.0,0.0,96,0.00,SCT,,0.00,49.0,WeatherDisplay:10.37,2013-05-31 11:43:00,
2013-05-31 06:48:00,62.4,61.2,29.64,South,182,0.0,0.0,96,0.00,SCT,,0.00,64.4,WeatherDisplay:10.37,2013-05-31 11:48:00,
2013-05-31 06:54:00,62.4,61.2,29.64,East,94,0.0,0.0,96,0.00,SCT,,0.00,58.8,WeatherDisplay:10.37,2013-05-31 11:54:00,
2013-05-31 06:59:00,62.5,61.6,29.64,SSW,202,0.0,3.5,97,0.00,SCT,,0.00,54.6,WeatherDisplay:10.37,2013-05-31 11:59:00,
2013-05-31 07:04:00,62.5,61.6,29.65,ENE,78,0.0,0.0,97,0.00,OVC,,0.00,58.8,WeatherDisplay:10.37,2013-05-31 12:04:00,
2013-05-31 07:09:00,62.6,61.4,29.65,NNE,15,0.0,0.0,96,0.00,OVC,,0.00,44.8,WeatherDisplay:10.37,2013-05-31 12:09:00,
2013-05-31 07:15:00,62.6,61.4,29.64,SW,229,0.0,0.0,96,0.00,OVC,,0.00,44.8,WeatherDisplay:10.37,2013-05-31 12:15:00,
2013-05-31 07:20:00,62.6,61.4,29.64,SE,134,0.0,0.0,96,0.00,OVC,,0.00,64.4,WeatherDisplay:10.37,2013-05-31 12:20:00,
2013-05-31 07:25:00,62.6,61.4,29.63,SE,136,0.0,0.0,96,0.00,OVC,,0.00,65.8,WeatherDisplay:10.37,2013-05-31 12:25:00,
2013-05-31 07:30:00,62.7,61.5,29.64,SE,136,0.0,0.0,96,0.00,OVC,,0.00,91.0,WeatherDisplay:10.37,2013-05-31 12:30:00,
2013-05-31 07:36:00,62.9,61.7,29.64,SE,144,0.0,0.0,96,0.00,OVC,,0.00,86.8,WeatherDisplay:10.37,2013-05-31 12:36:00,
2013-05-31 07:41:00,63.1,61.9,29.64,South,180,0.0,0.0,96,0.00,OVC,,0.00,86.8,WeatherDisplay:10.37,2013-05-31 12:41:00,
2013-05-31 07:46:00,63.1,61.9,29.65,SE,144,0.1,1.2,96,0.00,OVC,,0.00,116.2,WeatherDisplay:10.37,2013-05-31 12:46:00,
2013-05-31 07:51:00,63.4,62.2,29.65,South,186,0.1,2.0,96,0.00,OVC,,0.00,96.6,WeatherDisplay:10.37,2013-05-31 12:51:00,
2013-05-31 07:57:00,63.6,62.4,29.65,SW,215,0.0,0.0,96,0.00,OVC,,0.00,88.2,WeatherDisplay:10.37,2013-05-31 12:57:00,
2013-05-31 08:02:00,63.9,62.7,29.65,SSW,193,0.0,5.0,96,0.00,SCT,SCT,0.00,107.8,WeatherDisplay:10.37,2013-05-31 13:02:00,
2013-05-31 08:07:00,64.2,63.0,29.66,South,181,2.4,4.0,96,0.00,SCT,,0.00,96.6,WeatherDisplay:10.37,2013-05-31 13:07:00,
2013-05-31 08:12:00,64.4,62.9,29.66,SE,136,0.0,0.0,95,0.00,SCT,,0.00,130.2,WeatherDisplay:10.37,2013-05-31 13:12:00,
2013-05-31 08:18:00,64.6,63.1,29.67,SSE,161,1.3,2.3,95,0.00,SCT,,0.00,127.4,WeatherDisplay:10.37,2013-05-31 13:18:00,
2013-05-31 08:23:00,64.9,63.1,29.67,SSE,148,0.0,0.0,94,0.00,SCT,,0.00,135.8,WeatherDisplay:10.37,2013-05-31 13:23:00,
2013-05-31 08:28:00,65.3,63.5,29.67,NNW,336,0.0,0.0,94,0.00,SCT,,0.00,86.8,WeatherDisplay:10.37,2013-05-31 13:28:00,
2013-05-31 08:33:00,65.5,63.4,29.67,SSE,151,0.1,2.3,93,0.00,SCT,,0.00,189.0,WeatherDisplay:10.37,2013-05-31 13:33:00,
2013-05-31 08:39:00,65.9,63.8,29.67,South,180,1.3,4.0,93,0.00,SCT,,0.00,98.0,WeatherDisplay:10.37,2013-05-31 13:39:00,
2013-05-31 08:44:00,66.2,63.5,29.67,SE,144,0.0,1.2,91,0.00,SCT,,0.00,91.0,WeatherDisplay:10.37,2013-05-31 13:44:00,
2013-05-31 08:49:00,66.5,63.8,29.67,SSE,150,1.2,3.0,91,0.00,SCT,,0.00,103.6,WeatherDisplay:10.37,2013-05-31 13:49:00,
2013-05-31 08:54:00,66.8,63.5,29.67,SSW,202,1.3,4.6,89,0.00,SCT,,0.00,68.6,WeatherDisplay:10.37,2013-05-31 13:54:00,
2013-05-31 09:00:00,67.1,63.4,29.67,SE,146,2.1,10.4,88,0.00,SCT,,0.00,116.2,WeatherDisplay:10.37,2013-05-31 14:00:00,
2013-05-31 09:05:00,67.4,63.7,29.67,SSW,205,0.7,2.3,88,0.00,FEW,,0.00,88.2,WeatherDisplay:10.37,2013-05-31 14:05:00,
2013-05-31 09:10:00,67.7,63.7,29.67,SW,234,1.2,3.5,87,0.00,FEW,,0.00,91.0,WeatherDisplay:10.37,2013-05-31 14:10:00,
2013-05-31 09:15:00,68.1,64.1,29.67,South,171,4.3,9.2,87,0.00,FEW,,0.00,93.8,WeatherDisplay:10.37,2013-05-31 14:15:00,
2013-05-31 09:21:00,68.5,63.8,29.67,SSE,165,2.8,3.5,85,0.00,FEW,,0.00,93.8,WeatherDisplay:10.37,2013-05-31 14:21:00,
2013-05-31 09:26:00,68.8,64.1,29.67,ESE,121,0.8,3.5,85,0.00,FEW,,0.00,96.6,WeatherDisplay:10.37,2013-05-31 14:26:00,
2013-05-31 09:31:00,69.2,64.2,29.67,WNW,286,1.5,7.0,84,0.00,FEW,,0.00,100.8,WeatherDisplay:10.37,2013-05-31 14:31:00,
2013-05-31 09:36:00,69.6,64.5,29.67,WNW,290,0.8,3.5,84,0.00,FEW,,0.00,107.8,WeatherDisplay:10.37,2013-05-31 14:36:00,
2013-05-31 09:42:00,70.0,64.9,29.67,SSE,161,0.5,5.0,84,0.00,FEW,,0.00,103.6,WeatherDisplay:10.37,2013-05-31 14:42:00,
2013-05-31 09:47:00,70.4,65.0,29.67,South,183,1.0,6.0,83,0.00,FEW,FEW,0.00,126.0,WeatherDisplay:10.37,2013-05-31 14:47:00,
2013-05-31 09:52:00,70.7,64.2,29.67,SSE,148,2.6,4.6,80,0.00,FEW,,0.00,113.4,WeatherDisplay:10.37,2013-05-31 14:52:00,
2013-05-31 09:57:00,71.0,64.2,29.67,SE,140,2.9,9.0,79,0.00,FEW,,0.00,240.8,WeatherDisplay:10.37,2013-05-31 14:57:00,
2013-05-31 10:02:00,71.2,64.4,29.67,SW,215,1.7,6.9,79,0.00,FEW,,0.00,135.8,WeatherDisplay:10.37,2013-05-31 15:02:00,
2013-05-31 10:08:00,71.6,64.7,29.67,ESE,110,2.3,4.6,79,0.00,FEW,,0.00,165.2,WeatherDisplay:10.37,2013-05-31 15:08:00,
2013-05-31 10:13:00,71.9,64.3,29.67,West,277,0.8,0.0,77,0.00,FEW,,0.00,1026.2,WeatherDisplay:10.37,2013-05-31 15:13:00,
2013-05-31 10:18:00,72.3,65.4,29.67,SSE,151,0.1,2.0,79,0.00,FEW,,0.00,289.8,WeatherDisplay:10.37,2013-05-31 15:18:00,
2013-05-31 10:23:00,72.6,65.0,29.68,SSW,208,2.1,5.8,77,0.00,FEW,,0.00,142.8,WeatherDisplay:10.37,2013-05-31 15:23:00,
2013-05-31 10:29:00,72.8,64.4,29.67,SSW,192,6.0,11.5,75,0.00,FEW,,0.00,198.8,WeatherDisplay:10.37,2013-05-31 15:29:00,
2013-05-31 10:34:00,73.2,65.2,29.67,SW,221,2.2,9.2,76,0.00,FEW,,0.00,1127.0,WeatherDisplay:10.37,2013-05-31 15:34:00,
2013-05-31 10:39:00,73.4,65.0,29.68,SSE,148,2.8,8.1,75,0.00,FEW,,0.00,1122.8,WeatherDisplay:10.37,2013-05-31 15:39:00,
2013-05-31 10:44:00,74.0,65.6,29.68,South,178,1.3,5.0,75,0.00,FEW,,0.00,1314.6,WeatherDisplay:10.37,2013-05-31 15:44:00,
2013-05-31 10:50:00,74.2,64.2,29.68,SSW,207,1.8,10.4,71,0.00,FEW,,0.00,1311.8,WeatherDisplay:10.37,2013-05-31 15:50:00,
2013-05-31 10:55:00,74.3,65.1,29.68,SE,145,1.5,3.5,73,0.00,FEW,,0.00,1409.8,WeatherDisplay:10.37,2013-05-31 15:55:00,
2013-05-31 11:00:00,74.5,64.5,29.69,SSE,168,5.0,9.2,71,0.00,FEW,,0.00,1318.8,WeatherDisplay:10.37,2013-05-31 16:00:00,
2013-05-31 11:05:00,74.7,65.1,29.69,SW,214,2.1,5.8,72,0.00,SCT,,0.00,1548.4,WeatherDisplay:10.37,2013-05-31 16:05:00,
2013-05-31 11:11:00,74.9,65.3,29.69,SE,131,3.7,17.3,72,0.00,SCT,,0.00,564.2,WeatherDisplay:10.37,2013-05-31 16:11:00,
2013-05-31 11:16:00,74.8,64.8,29.69,NNE,23,0.0,1.0,71,0.00,SCT,,0.00,411.6,WeatherDisplay:10.37,2013-05-31 16:16:00,
2013-05-31 11:21:00,74.3,64.7,29.69,NW,323,0.1,1.2,72,0.00,SCT,,0.00,555.8,WeatherDisplay:10.37,2013-05-31 16:21:00,
2013-05-31 11:26:00,74.3,64.3,29.69,SE,134,2.9,6.9,71,0.00,SCT,,0.00,450.8,WeatherDisplay:10.37,2013-05-31 16:26:00,
2013-05-31 11:32:00,73.9,64.3,29.69,SSW,192,3.4,10.4,72,0.00,SCT,,0.00,541.8,WeatherDisplay:10.37,2013-05-31 16:32:00,
2013-05-31 11:37:00,74.1,64.9,29.69,SSE,161,1.0,14.0,73,0.00,SCT,SCT,0.00,539.0,WeatherDisplay:10.37,2013-05-31 16:37:00,
2013-05-31 11:42:00,74.2,65.4,29.69,SE,131,1.0,10.0,74,0.00,SCT,SCT,0.00,623.0,WeatherDisplay:10.37,2013-05-31 16:42:00,
2013-05-31 11:47:00,74.0,64.8,29.69,SE,141,1.0,10.0,73,0.00,SCT,SCT,0.00,334.6,WeatherDisplay:10.37,2013-05-31 16:47:00,
2013-05-31 11:52:00,73.9,65.5,29.69,SSE,168,0.0,1.2,75,0.00,SCT,,0.00,341.6,WeatherDisplay:10.37,2013-05-31 16:52:00,
2013-05-31 11:57:00,73.6,64.4,29.69,West,275,0.1,3.5,73,0.00,SCT,,0.00,263.2,WeatherDisplay:10.37,2013-05-31 16:57:00,
2013-05-31 12:02:00,73.2,64.4,29.70,SSE,165,2.7,11.0,74,0.00,BKN,,0.00,371.0,WeatherDisplay:10.37,2013-05-31 17:02:00,
2013-05-31 12:08:00,73.0,64.2,29.70,ESE,121,3.9,5.0,74,0.00,BKN,,0.00,593.6,WeatherDisplay:10.37,2013-05-31 17:08:00,
2013-05-31 12:13:00,73.2,64.8,29.69,ESE,118,1.1,3.5,75,0.00,BKN,,0.00,421.4,WeatherDisplay:10.37,2013-05-31 17:13:00,
2013-05-31 12:18:00,73.3,64.5,29.70,NW,323,0.5,2.3,74,0.00,BKN,,0.00,347.2,WeatherDisplay:10.37,2013-05-31 17:18:00,
2013-05-31 12:23:00,73.1,64.7,29.69,East,85,1.8,7.0,75,0.00,BKN,,0.00,383.6,WeatherDisplay:10.37,2013-05-31 17:23:00,
2013-05-31 12:29:00,73.4,65.4,29.69,SSE,158,0.9,6.9,76,0.00,BKN,,0.00,624.4,WeatherDisplay:10.37,2013-05-31 17:29:00,
2013-05-31 12:34:00,74.2,65.8,29.69,SE,127,0.0,1.2,75,0.00,BKN,,0.00,1695.4,WeatherDisplay:10.37,2013-05-31 17:34:00,
2013-05-31 12:39:00,74.8,65.6,29.69,NE,42,0.0,1.2,73,0.00,BKN,,0.00,1653.4,WeatherDisplay:10.37,2013-05-31 17:39:00,
2013-05-31 12:44:00,74.5,65.7,29.69,SSW,200,2.7,7.0,74,0.00,BKN,,0.00,1104.6,WeatherDisplay:10.37,2013-05-31 17:44:00,
2013-05-31 12:50:00,74.6,65.8,29.69,ESE,121,1.4,11.5,74,0.00,BKN,,0.00,305.2,WeatherDisplay:10.37,2013-05-31 17:50:00,
2013-05-31 12:55:00,74.2,65.0,29.69,SSE,149,0.3,2.3,73,0.00,BKN,,0.00,344.4,WeatherDisplay:10.37,2013-05-31 17:55:00,
2013-05-31 13:00:00,74.6,65.4,29.69,SW,221,3.0,6.9,73,0.00,BKN,,0.00,406.0,WeatherDisplay:10.37,2013-05-31 18:00:00,
2013-05-31 13:05:00,75.3,64.8,29.69,SSW,197,4.5,10.4,70,0.00,BKN,,0.00,484.4,WeatherDisplay:10.37,2013-05-31 18:05:00,
2013-05-31 13:11:00,75.2,65.6,29.69,SSE,157,0.5,2.3,72,0.00,BKN,,0.00,484.4,WeatherDisplay:10.37,2013-05-31 18:11:00,
2013-05-31 13:16:00,75.4,65.7,29.69,SSE,156,1.6,5.0,72,0.00,BKN,,0.00,610.4,WeatherDisplay:10.37,2013-05-31 18:16:00,
2013-05-31 13:21:00,75.5,65.8,29.68,SSE,166,3.0,8.0,72,0.00,BKN,,0.00,406.0,WeatherDisplay:10.37,2013-05-31 18:21:00,
2013-05-31 13:26:00,75.2,65.6,29.68,South,191,0.7,2.3,72,0.00,BKN,,0.00,593.6,WeatherDisplay:10.37,2013-05-31 18:26:00,
2013-05-31 13:32:00,75.0,65.4,29.68,West,277,0.2,0.0,72,0.00,BKN,,0.00,483.0,WeatherDisplay:10.37,2013-05-31 18:32:00,
2013-05-31 13:37:00,75.0,66.1,29.68,SSE,150,1.0,9.0,74,0.00,BKN,,0.00,347.2,WeatherDisplay:10.37,2013-05-31 18:37:00,
2013-05-31 13:42:00,75.4,65.7,29.68,SSW,194,0.1,1.2,72,0.00,BKN,,0.00,484.4,WeatherDisplay:10.37,2013-05-31 18:42:00,
2013-05-31 13:47:00,76.4,65.5,29.68,ESE,102,3.7,4.0,69,0.00,BKN,,0.00,1353.8,WeatherDisplay:10.37,2013-05-31 18:47:00,
2013-05-31 13:53:00,76.3,65.4,29.68,SSW,213,2.1,5.8,69,0.00,BKN,,0.00,494.2,WeatherDisplay:10.37,2013-05-31 18:53:00,
2013-05-31 13:58:00,76.0,65.9,29.68,SE,144,0.2,3.0,71,0.00,BKN,,0.00,389.2,WeatherDisplay:10.37,2013-05-31 18:58:00,
2013-05-31 14:03:00,75.4,65.3,29.68,South,188,4.6,10.0,71,0.00,BKN,,0.00,812.0,WeatherDisplay:10.37,2013-05-31 19:03:00,
2013-05-31 14:08:00,75.5,65.8,29.68,SW,215,0.6,3.5,72,0.00,BKN,,0.00,390.6,WeatherDisplay:10.37,2013-05-31 19:08:00,
2013-05-31 14:14:00,75.3,66.0,29.67,SSE,148,2.1,8.1,73,0.00,BKN,,0.00,1610.0,WeatherDisplay:10.37,2013-05-31 19:14:00,
2013-05-31 14:19:00,75.4,65.3,29.67,NE,43,1.1,4.6,71,0.00,BKN,,0.00,627.2,WeatherDisplay:10.37,2013-05-31 19:19:00,
2013-05-31 14:24:00,75.1,65.9,29.67,SE,146,0.3,3.5,73,0.00,BKN,,0.00,1468.6,WeatherDisplay:10.37,2013-05-31 19:24:00,
2013-05-31 14:30:00,74.9,65.7,29.67,South,187,4.2,6.9,73,0.00,BKN,,0.00,299.6,WeatherDisplay:10.37,2013-05-31 19:30:00,
2013-05-31 14:35:00,74.4,66.3,29.67,SSE,155,4.5,10.4,76,0.00,BKN,,0.00,1227.8,WeatherDisplay:10.37,2013-05-31 19:35:00,
2013-05-31 14:40:00,75.2,67.5,29.67,SSE,165,0.1,1.2,77,0.00,BKN,,0.00,1346.8,WeatherDisplay:10.37,2013-05-31 19:40:00,
2013-05-31 14:45:00,76.0,69.0,29.67,SSE,155,0.1,5.8,79,0.00,BKN,,0.00,1386.0,WeatherDisplay:10.37,2013-05-31 19:45:00,
2013-05-31 14:51:00,76.1,67.2,29.67,SSE,151,2.0,10.4,74,0.00,BKN,,0.00,1402.8,WeatherDisplay:10.37,2013-05-31 19:51:00,
2013-05-31 14:56:00,76.2,67.3,29.67,SSE,163,3.0,10.4,74,0.00,BKN,,0.00,1412.6,WeatherDisplay:10.37,2013-05-31 19:56:00,
2013-05-31 15:01:00,76.3,66.6,29.67,ESE,117,0.4,3.0,72,0.00,SCT,,0.00,393.4,WeatherDisplay:10.37,2013-05-31 20:01:00,
2013-05-31 15:06:00,75.9,67.4,29.67,SSW,198,2.2,3.5,75,0.00,SCT,,0.00,1370.6,WeatherDisplay:10.37,2013-05-31 20:06:00,
2013-05-31 15:12:00,76.6,67.7,29.66,SSE,152,0.1,3.0,74,0.00,SCT,,0.00,1432.2,WeatherDisplay:10.37,2013-05-31 20:12:00,
2013-05-31 15:17:00,77.0,66.8,29.66,SSE,166,0.0,14.0,71,0.00,SCT,SCT,0.00,1471.4,WeatherDisplay:10.37,2013-05-31 20:17:00,
2013-05-31 15:22:00,77.2,65.0,29.66,SSE,167,4.3,11.5,66,0.00,SCT,,0.00,1321.6,WeatherDisplay:10.37,2013-05-31 20:22:00,
2013-05-31 15:27:00,77.5,66.1,29.66,SW,231,0.8,3.5,68,0.00,SCT,,0.00,1302.0,WeatherDisplay:10.37,2013-05-31 20:27:00,
2013-05-31 15:33:00,78.1,67.1,29.66,SSE,158,0.8,6.0,69,0.00,SCT,,0.00,1353.8,WeatherDisplay:10.37,2013-05-31 20:33:00,
2013-05-31 15:38:00,77.3,65.1,29.66,SSW,206,1.2,3.5,66,0.00,SCT,,0.00,1171.8,WeatherDisplay:10.37,2013-05-31 20:38:00,
2013-05-31 15:43:00,76.5,65.1,29.66,ENE,66,1.2,4.6,68,0.00,SCT,,0.00,228.2,WeatherDisplay:10.37,2013-05-31 20:43:00,
2013-05-31 15:48:00,76.5,65.6,29.66,SSE,155,0.2,1.2,69,0.00,SCT,,0.00,1195.6,WeatherDisplay:10.37,2013-05-31 20:48:00,
2013-05-31 15:54:00,78.2,67.6,29.66,SSE,157,0.7,5.8,70,0.00,SCT,,0.00,1208.2,WeatherDisplay:10.37,2013-05-31 20:54:00,
2013-05-31 15:59:00,78.2,67.6,29.66,South,188,0.0,1.2,70,0.00,SCT,,0.00,1335.6,WeatherDisplay:10.37,2013-05-31 20:59:00,
2013-05-31 16:04:00,78.9,66.1,29.66,South,182,0.5,3.5,65,0.00,FEW,,0.00,1218.0,WeatherDisplay:10.37,2013-05-31 21:04:00,
2013-05-31 16:09:00,77.9,66.1,29.65,SE,144,0.6,4.6,67,0.00,FEW,,0.00,1253.0,WeatherDisplay:10.37,2013-05-31 21:09:00,
2013-05-31 16:15:00,76.9,63.3,29.66,NE,40,3.4,12.7,63,0.00,FEW,,0.00,1260.0,WeatherDisplay:10.37,2013-05-31 21:15:00,
2013-05-31 16:20:00,77.1,65.7,29.66,SW,217,4.0,8.1,68,0.00,FEW,,0.00,925.4,WeatherDisplay:10.37,2013-05-31 21:20:00,
2013-05-31 16:25:00,77.4,65.6,29.66,SSW,193,2.3,6.9,67,0.00,FEW,,0.00,1195.6,WeatherDisplay:10.37,2013-05-31 21:25:00,
2013-05-31 16:30:00,76.6,65.7,29.66,ESE,109,2.7,6.9,69,0.00,FEW,,0.00,1220.8,WeatherDisplay:10.37,2013-05-31 21:30:00,
2013-05-31 16:36:00,75.8,64.5,29.66,East,97,5.4,11.5,68,0.00,FEW,,0.00,532.0,WeatherDisplay:10.37,2013-05-31 21:36:00,
2013-05-31 16:41:00,75.1,64.6,29.66,East,101,3.2,10.4,70,0.00,FEW,,0.00,331.8,WeatherDisplay:10.37,2013-05-31 21:41:00,
2013-05-31 16:46:00,74.9,64.5,29.66,SW,230,2.9,4.6,70,0.00,FEW,,0.00,750.4,WeatherDisplay:10.37,2013-05-31 21:46:00,
2013-05-31 16:51:00,75.9,65.4,29.65,SSE,163,2.6,6.9,70,0.00,FEW,,0.00,1045.8,WeatherDisplay:10.37,2013-05-31 21:51:00,
2013-05-31 16:57:00,75.9,65.0,29.65,West,272,0.4,3.5,69,0.00,FEW,,0.00,317.8,WeatherDisplay:10.37,2013-05-31 21:57:00,
2013-05-31 17:02:00,75.8,64.5,29.65,SE,124,0.0,6.9,68,0.00,BKN,,0.00,194.6,WeatherDisplay:10.37,2013-05-31 22:02:00,
2013-05-31 17:07:00,75.3,64.8,29.64,East,80,0.0,0.0,70,0.00,BKN,,0.00,194.6,WeatherDisplay:10.37,2013-05-31 22:07:00,
2013-05-31 17:12:00,74.9,64.5,29.64,ESE,107,1.6,3.5,70,0.00,BKN,,0.00,364.0,WeatherDisplay:10.37,2013-05-31 22:12:00,
2013-05-31 17:17:00,75.0,64.5,29.65,SE,138,2.6,9.2,70,0.00,BKN,,0.00,231.0,WeatherDisplay:10.37,2013-05-31 22:17:00,
2013-05-31 17:23:00,74.9,65.3,29.64,SE,142,1.9,3.0,72,0.00,BKN,,0.00,182.0,WeatherDisplay:10.37,2013-05-31 22:23:00,
2013-05-31 17:28:00,74.6,64.6,29.65,SSE,160,1.8,8.1,71,0.00,BKN,,0.00,228.2,WeatherDisplay:10.37,2013-05-31 22:28:00,
2013-05-31 17:33:00,74.5,66.1,29.64,SE,144,0.5,3.0,75,0.00,BKN,,0.00,337.4,WeatherDisplay:10.37,2013-05-31 22:33:00,
2013-05-31 17:38:00,74.6,65.4,29.63,SSE,161,0.1,4.0,73,0.00,BKN,,0.00,278.6,WeatherDisplay:10.37,2013-05-31 22:38:00,
2013-05-31 17:44:00,74.8,66.0,29.64,SSE,165,1.9,6.0,74,0.00,BKN,,0.00,243.6,WeatherDisplay:10.37,2013-05-31 22:44:00,
2013-05-31 17:49:00,75.1,65.1,29.64,SSE,165,1.4,4.6,71,0.00,BKN,,0.00,263.2,WeatherDisplay:10.37,2013-05-31 22:49:00,
2013-05-31 17:54:00,75.1,65.5,29.65,SSW,208,0.4,2.0,72,0.00,BKN,,0.00,91.0,WeatherDisplay:10.37,2013-05-31 22:54:00,
2013-05-31 17:59:00,75.0,65.4,29.65,SE,144,1.4,4.0,72,0.00,BKN,,0.00,140.0,WeatherDisplay:10.37,2013-05-31 22:59:00,
2013-05-31 18:05:00,74.9,65.7,29.64,South,181,2.3,5.8,73,0.00,FEW,,0.00,106.4,WeatherDisplay:10.37,2013-05-31 23:05:00,
2013-05-31 18:10:00,74.9,65.7,29.64,South,174,1.4,11.5,73,0.00,FEW,,0.00,103.6,WeatherDisplay:10.37,2013-05-31 23:10:00,
2013-05-31 18:15:00,74.7,64.7,29.64,SSE,150,2.3,11.0,71,0.00,FEW,,0.00,86.8,WeatherDisplay:10.37,2013-05-31 23:15:00,
2013-05-31 18:20:00,74.5,64.9,29.64,NNE,30,0.2,2.3,72,0.00,FEW,,0.00,58.8,WeatherDisplay:10.37,2013-05-31 23:20:00,
2013-05-31 18:26:00,74.0,64.0,29.63,West,269,0.2,5.8,71,0.00,FEW,,0.00,86.8,WeatherDisplay:10.37,2013-05-31 23:26:00,
2013-05-31 18:31:00,73.7,64.5,29.64,SSE,155,0.0,1.2,73,0.00,FEW,,0.00,98.0,WeatherDisplay:10.37,2013-05-31 23:31:00,
2013-05-31 18:36:00,73.5,64.7,29.63,SSE,155,0.0,0.0,74,0.00,FEW,,0.00,86.8,WeatherDisplay:10.37,2013-05-31 23:36:00,
2013-05-31 18:41:00,73.4,64.6,29.64,South,173,0.0,0.0,74,0.00,FEW,,0.00,81.2,WeatherDisplay:10.37,2013-05-31 23:41:00,
2013-05-31 18:47:00,73.2,64.4,29.64,SSE,156,0.0,0.0,74,0.00,FEW,,0.00,64.4,WeatherDisplay:10.37,2013-05-31 23:47:00,
2013-05-31 18:52:00,73.2,64.8,29.63,SSE,162,1.0,5.0,75,0.00,FEW,FEW,0.00,61.6,WeatherDisplay:10.37,2013-05-31 23:52:00,
2013-05-31 18:57:00,73.1,65.0,29.63,South,170,1.0,6.0,76,0.00,FEW,FEW,0.00,75.6,WeatherDisplay:10.37,2013-05-31 23:57:00,
2013-05-31 19:02:00,73.0,65.0,29.62,East,92,0.0,0.0,76,0.00,FEW,,0.00,58.8,WeatherDisplay:10.37,2013-06-01 00:02:00,
2013-05-31 19:07:00,73.0,65.0,29.64,SE,133,0.1,3.5,76,0.00,FEW,,0.00,74.2,WeatherDisplay:10.37,2013-06-01 00:07:00,
2013-05-31 19:12:00,73.1,65.5,29.64,SW,235,0.0,0.0,77,0.00,FEW,,0.00,96.6,WeatherDisplay:10.37,2013-06-01 00:12:00,
2013-05-31 19:17:00,73.2,65.6,29.63,SSE,161,1.0,4.6,77,0.00,FEW,,0.00,98.0,WeatherDisplay:10.37,2013-06-01 00:17:00,
2013-05-31 19:23:00,73.2,65.6,29.64,South,173,2.6,5.8,77,0.00,FEW,,0.00,58.8,WeatherDisplay:10.37,2013-06-01 00:23:00,
2013-05-31 19:28:00,73.2,65.6,29.63,West,273,0.5,3.5,77,0.00,FEW,,0.00,86.8,WeatherDisplay:10.37,2013-06-01 00:28:00,
2013-05-31 19:33:00,73.3,65.3,29.63,SSW,194,1.1,4.0,76,0.00,FEW,,0.00,106.4,WeatherDisplay:10.37,2013-06-01 00:33:00,
2013-05-31 19:39:00,73.5,65.8,29.63,SE,136,0.6,1.2,77,0.00,FEW,,0.00,100.8,WeatherDisplay:10.37,2013-06-01 00:39:00,
2013-05-31 19:44:00,73.6,65.6,29.63,SSE,155,2.5,6.0,76,0.00,FEW,,0.00,126.0,WeatherDisplay:10.37,2013-06-01 00:44:00,
2013-05-31 19:49:00,73.6,65.9,29.62,South,182,0.0,0.0,77,0.00,FEW,,0.00,64.4,WeatherDisplay:10.37,2013-06-01 00:49:00,
2013-05-31 19:54:00,73.6,65.6,29.62,East,85,0.0,0.0,76,0.00,FEW,,0.00,35.0,WeatherDisplay:10.37,2013-06-01 00:54:00,
2013-05-31 20:00:00,73.4,65.4,29.63,SSE,167,0.8,4.0,76,0.00,FEW,,0.00,25.2,WeatherDisplay:10.37,2013-06-01 01:00:00,
2013-05-31 20:05:00,73.3,65.3,29.64,West,260,0.1,1.2,76,0.00,SCT,,0.00,22.4,WeatherDisplay:10.37,2013-06-01 01:05:00,
2013-05-31 20:10:00,73.0,65.4,29.63,WNW,298,0.2,1.2,77,0.00,SCT,,0.00,19.6,WeatherDisplay:10.37,2013-06-01 01:10:00,
2013-05-31 20:15:00,72.7,65.1,29.64,East,83,0.2,0.0,77,0.00,SCT,,0.00,16.8,WeatherDisplay:10.37,2013-06-01 01:15:00,
2013-05-31 20:21:00,72.5,65.2,29.63,SSE,147,0.0,4.6,78,0.00,SCT,,0.00,15.4,WeatherDisplay:10.37,2013-06-01 01:21:00,
2013-05-31 20:26:00,72.3,65.1,29.63,SSW,202,0.0,2.3,78,0.00,SCT,,0.00,12.6,WeatherDisplay:10.37,2013-06-01 01:26:00,
2013-05-31 20:31:00,72.1,64.9,29.63,SE,135,2.0,5.8,78,0.00,SCT,,0.00,7.0,WeatherDisplay:10.37,2013-06-01 01:31:00,
2013-05-31 20:36:00,71.9,65.0,29.63,South,172,0.0,0.0,79,0.00,SCT,,0.00,7.0,WeatherDisplay:10.37,2013-06-01 01:36:00,
2013-05-31 20:42:00,71.7,64.5,29.63,South,169,0.0,0.0,78,0.00,SCT,,0.00,0.0,WeatherDisplay:10.37,2013-06-01 01:42:00,
2013-05-31 20:47:00,71.5,64.6,29.63,South,175,0.0,1.0,79,0.00,SCT,SCT,0.00,0.0,WeatherDisplay:10.37,2013-06-01 01:47:00,
2013-05-31 20:52:00,71.2,64.4,29.63,South,187,0.2,1.2,79,0.00,SCT,,0.00,0.0,WeatherDisplay:10.37,2013-06-01 01:52:00,
2013-05-31 20:57:00,71.0,64.2,29.64,South,178,0.0,0.0,79,0.00,SCT,,0.00,0.0,WeatherDisplay:10.37,2013-06-01 01:57:00,
2013-05-31 21:03:00,70.9,64.1,29.64,South,169,0.0,1.2,79,0.00,SCT,,0.00,0.0,WeatherDisplay:10.37,2013-06-01 02:03:00,
2013-05-31 21:08:00,70.7,64.2,29.64,SSE,148,0.0,0.0,80,0.00,SCT,,0.00,0.0,WeatherDisplay:10.37,2013-06-01 02:08:00,
2013-05-31 21:13:00,70.4,64.3,29.65,SE,146,2.1,6.9,81,0.00,SCT,,0.00,0.0,WeatherDisplay:10.37,2013-06-01 02:13:00,
2013-05-31 21:18:00,70.3,64.2,29.64,SE,127,0.0,0.0,81,0.00,SCT,,0.00,0.0,WeatherDisplay:10.37,2013-06-01 02:18:00,
2013-05-31 21:24:00,70.1,64.3,29.65,South,177,0.0,0.0,82,0.00,SCT,,0.00,0.0,WeatherDisplay:10.37,2013-06-01 02:24:00,
2013-05-31 21:29:00,69.9,64.5,29.65,WSW,244,0.2,2.3,83,0.00,SCT,,0.00,0.0,WeatherDisplay:10.37,2013-06-01 02:29:00,
2013-05-31 21:34:00,69.8,64.4,29.65,SSE,152,0.7,10.4,83,0.00,SCT,,0.00,0.0,WeatherDisplay:10.37,2013-06-01 02:34:00,
2013-05-31 21:39:00,69.8,64.4,29.65,ENE,62,0.1,1.0,83,0.00,SCT,,0.00,0.0,WeatherDisplay:10.37,2013-06-01 02:39:00,
2013-05-31 21:45:00,69.6,64.2,29.65,SE,140,0.0,0.0,83,0.00,SCT,,0.00,0.0,WeatherDisplay:10.37,2013-06-01 02:45:00,
2013-05-31 21:50:00,69.6,64.5,29.65,ENE,58,0.0,0.0,84,0.00,SCT,,0.00,0.0,WeatherDisplay:10.37,2013-06-01 02:50:00,
2013-05-31 21:55:00,69.5,64.8,29.66,ENE,57,0.0,0.0,85,0.00,SCT,,0.00,0.0,WeatherDisplay:10.37,2013-06-01 02:55:00,
2013-05-31 22:00:00,69.3,64.9,29.66,South,177,0.0,0.0,86,0.00,SCT,,0.00,0.0,WeatherDisplay:10.37,2013-06-01 03:00:00,
2013-05-31 22:06:00,69.2,64.8,29.66,South,170,0.8,2.3,86,0.00,FEW,,0.00,0.0,WeatherDisplay:10.37,2013-06-01 03:06:00,
2013-05-31 22:17:00,69.1,65.1,29.66,NE,55,0.0,0.0,87,0.00,FEW,FEW,0.00,0.0,WeatherDisplay:10.37,2013-06-01 03:17:00,
2013-05-31 22:22:00,68.9,64.9,29.66,ESE,117,0.0,0.0,87,0.00,FEW,,0.00,0.0,WeatherDisplay:10.37,2013-06-01 03:22:00,
2013-05-31 22:27:00,68.7,64.7,29.66,ESE,117,0.0,0.0,87,0.00,FEW,,0.00,0.0,WeatherDisplay:10.37,2013-06-01 03:27:00,
2013-05-31 22:33:00,68.5,64.8,29.65,East,86,0.0,0.0,88,0.00,FEW,,0.00,0.0,WeatherDisplay:10.37,2013-06-01 03:33:00,
2013-05-31 22:38:00,68.3,64.6,29.65,SE,133,0.0,0.0,88,0.00,FEW,,0.00,0.0,WeatherDisplay:10.37,2013-06-01 03:38:00,
2013-05-31 22:43:00,68.1,64.7,29.65,SE,127,0.1,1.2,89,0.00,FEW,,0.00,0.0,WeatherDisplay:10.37,2013-06-01 03:43:00,
2013-05-31 22:48:00,67.9,64.5,29.65,South,176,0.7,4.6,89,0.00,FEW,,0.00,0.0,WeatherDisplay:10.37,2013-06-01 03:48:00,
2013-05-31 22:54:00,67.8,64.4,29.65,SSE,167,0.0,2.3,89,0.00,FEW,,0.00,0.0,WeatherDisplay:10.37,2013-06-01 03:54:00,
2013-05-31 22:59:00,67.7,64.3,29.65,SW,222,1.3,4.6,89,0.00,FEW,,0.00,0.0,WeatherDisplay:10.37,2013-06-01 03:59:00,
2013-05-31 23:01:00,67.6,64.2,29.65,SW,222,0.6,4.6,89,0.00,FEW,,0.00,0.0,WeatherDisplay:10.37,2013-06-01 04:01:00,
2013-05-31 23:02:00,67.6,64.2,29.65,SW,222,0.0,0.0,89,0.00,FEW,,0.00,0.0,WeatherDisplay:10.37,2013-06-01 04:02:00,
2013-05-31 23:08:00,67.4,64.0,29.65,ESE,103,0.6,1.0,89,0.00,FEW,,0.00,0.0,WeatherDisplay:10.37,2013-06-01 04:08:00,
2013-05-31 23:13:00,67.3,63.9,29.65,SE,141,0.7,2.3,89,0.00,FEW,,0.00,0.0,WeatherDisplay:10.37,2013-06-01 04:13:00,
2013-05-31 23:18:00,67.2,63.8,29.65,SE,145,0.0,0.0,89,0.00,FEW,,0.00,0.0,WeatherDisplay:10.37,2013-06-01 04:18:00,
2013-05-31 23:23:00,67.1,64.1,29.65,ESE,103,0.0,1.2,90,0.00,FEW,,0.00,0.0,WeatherDisplay:10.37,2013-06-01 04:23:00,
2013-05-31 23:29:00,67.0,64.0,29.65,South,173,0.1,2.0,90,0.00,FEW,,0.00,0.0,WeatherDisplay:10.37,2013-06-01 04:29:00,
2013-05-31 23:34:00,66.9,63.9,29.65,South,175,0.0,0.0,90,0.00,FEW,,0.00,0.0,WeatherDisplay:10.37,2013-06-01 04:34:00,
2013-05-31 23:39:00,66.8,63.8,29.65,SSE,148,0.0,0.0,90,0.00,FEW,,0.00,0.0,WeatherDisplay:10.37,2013-06-01 04:39:00,
2013-05-31 23:44:00,66.7,63.7,29.65,SSW,199,0.1,2.0,90,0.00,FEW,,0.00,0.0,WeatherDisplay:10.37,2013-06-01 04:44:00,
2013-05-31 23:50:00,66.7,63.7,29.65,South,183,0.4,1.2,90,0.00,FEW,,0.00,0.0,WeatherDisplay:10.37,2013-06-01 04:50:00,
2013-05-31 23:55:00,66.6,63.6,29.64,South,180,0.0,0.0,90,0.00,FEW,,0.00,0.0,WeatherDisplay:10.37,2013-06-01 04:55:00,